Time;durP1;ratioP1;P1;durP2;ratioP2;P2;SDS_P1;SDS_P2;PMS_P1;PMS_P2;Temp;Humidity;BMP_temperature;BMP_pressure;BME280_temperature;BME280_humidity;BME280_pressure;Samples;Min_cycle;Max_cycle;Signal;HPM_P1;HPM_P2
2024/04/08 00:00:32;;;;;;;1999.90;999.90;;;20.60;60.00;;;;;;5379750;26;20220;-72
2024/04/08 00:02:58;;;;;;;1999.90;999.90;;;20.60;60.20;;;;;;5380839;26;20266;-72
2024/04/08 00:08:01;;;;;;;1999.90;999.90;;;20.40;60.70;;;;;;5359508;21;20327;-72
2024/04/08 00:10:26;;;;;;;1999.90;999.90;;;20.40;60.70;;;;;;5309948;27;20715;-71
2024/04/08 00:12:52;;;;;;;1999.90;999.90;;;20.30;61.10;;;;;;5311383;26;20339;-72
2024/04/08 00:32:12;;;;;;;1999.90;999.90;;;20.20;62.50;;;;;;5295546;21;20284;-72
2024/04/08 00:34:39;;;;;;;1999.90;999.90;;;20.10;62.60;;;;;;5311141;26;20332;-72
2024/04/08 00:42:32;;;;;;;1999.90;999.90;;;19.90;62.30;;;;;;5376151;26;20282;-72
2024/04/08 00:47:29;;;;;;;1999.90;999.90;;;19.90;61.30;;;;;;5273234;27;20766;-71
2024/04/08 00:49:54;;;;;;;1999.90;999.90;;;19.90;60.80;;;;;;5276574;27;20306;-71
2024/04/08 00:52:20;;;;;;;1999.90;999.90;;;20.00;60.30;;;;;;5276221;27;20232;-72
2024/04/08 00:54:46;;;;;;;1999.90;999.90;;;20.10;60.30;;;;;;5276415;27;20223;-71
2024/04/08 00:57:13;;;;;;;1999.90;999.90;;;20.20;60.80;;;;;;5346239;21;20361;-72
2024/04/08 00:59:39;;;;;;;1999.90;999.90;;;20.20;61.40;;;;;;5344170;26;20217;-71
2024/04/08 01:02:05;;;;;;;1999.90;999.90;;;20.20;62.10;;;;;;5344706;26;20271;-71
2024/04/08 01:04:34;;;;;;;1999.90;999.90;;;20.20;62.60;;;;;;5344596;26;20332;-72
2024/04/08 01:07:01;;;;;;;1999.90;999.90;;;20.20;63.10;;;;;;5343493;26;20357;-71
2024/04/08 01:09:27;;;;;;;1999.90;999.90;;;20.20;63.40;;;;;;5344441;26;20233;-72
2024/04/08 01:11:54;;;;;;;1999.90;999.90;;;20.10;64.00;;;;;;5346139;26;20220;-72
2024/04/08 01:14:19;;;;;;;1999.90;999.90;;;20.00;64.50;;;;;;5323217;26;20238;-72
2024/04/08 01:16:45;;;;;;;1999.90;999.90;;;20.00;65.00;;;;;;5313825;26;20750;-72
2024/04/08 01:19:17;;;;;;;1999.90;999.90;;;19.90;65.40;;;;;;5347726;26;20240;-72
2024/04/08 01:21:43;;;;;;;1999.90;999.90;;;19.80;65.70;;;;;;5348048;26;20251;-72
2024/04/08 01:24:09;;;;;;;1999.90;999.90;;;19.80;66.00;;;;;;5348000;26;20568;-71
2024/04/08 01:26:34;;;;;;;1999.90;999.90;;;19.70;66.40;;;;;;5344907;26;20241;-71
2024/04/08 01:29:00;;;;;;;1999.90;999.90;;;19.60;66.80;;;;;;5341468;26;20280;-71
2024/04/08 01:31:27;;;;;;;1999.90;999.90;;;19.50;67.00;;;;;;5339804;26;20322;-71
2024/04/08 01:33:52;;;;;;;1999.90;999.90;;;19.50;67.30;;;;;;5347783;26;20236;-71
2024/04/08 01:36:18;;;;;;;1999.90;999.90;;;19.40;67.70;;;;;;5352038;21;20344;-72
2024/04/08 01:38:44;;;;;;;1999.90;999.90;;;19.30;67.90;;;;;;5313273;27;20328;-71
2024/04/08 01:41:09;;;;;;;1999.90;999.90;;;19.30;68.10;;;;;;5312954;27;20831;-72
2024/04/08 01:43:35;;;;;;;1999.90;999.90;;;19.20;68.50;;;;;;5298914;27;20281;-71
2024/04/08 01:48:36;;;;;;;1999.90;999.90;;;19.20;69.30;;;;;;3208534;25;20258;-72
2024/04/08 01:51:02;;;;;;;1999.90;999.90;;;19.20;69.60;;;;;;5211927;27;20755;-72
2024/04/08 01:53:28;;;;;;;1999.90;999.90;;;19.20;69.80;;;;;;5211850;27;20216;-72
2024/04/08 01:55:54;;;;;;;1999.90;999.90;;;19.20;69.80;;;;;;5211408;27;20575;-72
2024/04/08 01:58:20;;;;;;;1999.90;999.90;;;19.20;70.00;;;;;;5210876;27;20217;-72
2024/04/08 02:00:45;;;;;;;1999.90;999.90;;;19.20;70.10;;;;;;5211629;27;20272;-71
2024/04/08 02:03:11;;;;;;;1999.90;999.90;;;19.10;70.40;;;;;;5209800;27;20244;-72
2024/04/08 02:05:36;;;;;;;1999.90;999.90;;;19.00;71.10;;;;;;5211486;27;20237;-71
2024/04/08 02:08:02;;;;;;;1999.90;999.90;;;18.90;71.90;;;;;;5211067;27;20270;-71
2024/04/08 02:10:28;;;;;;;1999.90;999.90;;;18.80;72.50;;;;;;5211913;27;20271;-71
2024/04/08 02:12:53;;;;;;;1999.90;999.90;;;18.70;72.60;;;;;;5212035;27;20221;-71
2024/04/08 02:15:19;;;;;;;1999.90;999.90;;;18.60;73.00;;;;;;5211415;27;20287;-71
2024/04/08 02:17:45;;;;;;;1999.90;999.90;;;18.50;72.90;;;;;;5210451;27;20775;-71
2024/04/08 02:20:11;;;;;;;1999.90;999.90;;;18.50;72.70;;;;;;5211600;27;20267;-71
2024/04/08 02:22:36;;;;;;;1999.90;999.90;;;18.50;72.50;;;;;;5209376;27;20254;-71
2024/04/08 02:25:02;;;;;;;1999.90;999.90;;;18.50;72.50;;;;;;5211520;27;20213;-71
2024/04/08 02:27:28;;;;;;;1999.90;999.90;;;18.50;72.60;;;;;;5210561;27;20244;-71
2024/04/08 02:29:54;;;;;;;1999.90;999.90;;;18.40;72.70;;;;;;5211125;27;20359;-72
2024/04/08 02:32:20;;;;;;;1999.90;999.90;;;18.40;72.90;;;;;;5211399;27;20236;-71
2024/04/08 02:34:46;;;;;;;1999.90;999.90;;;18.30;73.20;;;;;;5211115;27;20271;-71
2024/04/08 02:37:11;;;;;;;1999.90;999.90;;;18.30;74.00;;;;;;5285028;21;20702;-71
2024/04/08 02:39:37;;;;;;;1999.90;999.90;;;18.20;74.30;;;;;;5278016;27;20227;-71
2024/04/08 02:42:06;;;;;;;1999.90;999.90;;;18.20;74.60;;;;;;5277908;27;20294;-71
2024/04/08 02:44:32;;;;;;;1999.90;999.90;;;18.30;74.70;;;;;;5277937;27;20269;-71
2024/04/08 02:46:58;;;;;;;1999.90;999.90;;;18.30;74.60;;;;;;5308717;21;20277;-71
2024/04/08 02:49:25;;;;;;;1999.90;999.90;;;18.30;74.70;;;;;;5264072;27;20246;-72
2024/04/08 02:51:51;;;;;;;1999.90;999.90;;;18.30;74.90;;;;;;5277902;27;20265;-71
2024/04/08 02:54:16;;;;;;;1999.90;999.90;;;18.20;75.20;;;;;;5277920;27;20219;-72
2024/04/08 02:56:42;;;;;;;1999.90;999.90;;;18.20;75.60;;;;;;5276833;27;20592;-72
2024/04/08 02:59:07;;;;;;;1999.90;999.90;;;18.10;75.90;;;;;;5277996;27;20561;-71
2024/04/08 03:01:35;;;;;;;1999.90;999.90;;;18.10;76.00;;;;;;5277827;27;20227;-71
2024/04/08 03:04:01;;;;;;;1999.90;999.90;;;18.10;76.30;;;;;;5277879;27;20721;-72
2024/04/08 03:06:29;;;;;;;1999.90;999.90;;;18.10;76.50;;;;;;5277100;27;20246;-71
2024/04/08 03:08:55;;;;;;;1999.90;999.90;;;18.10;76.50;;;;;;5276031;27;20261;-71
2024/04/08 03:11:20;;;;;;;1999.90;999.90;;;18.10;76.60;;;;;;5277756;27;20222;-71
2024/04/08 03:13:48;;;;;;;1999.90;999.90;;;18.10;76.50;;;;;;5277504;27;20235;-72
2024/04/08 03:18:51;;;;;;;1999.90;999.90;;;18.00;76.50;;;;;;1477345;24;20247;-72
2024/04/08 03:21:16;;;;;;;1999.90;999.90;;;18.00;76.50;;;;;;5356623;26;20863;-72
2024/04/08 03:23:42;;;;;;;1999.90;999.90;;;17.90;76.50;;;;;;5346041;26;20220;-72
2024/04/08 03:26:09;;;;;;;1999.90;999.90;;;17.80;76.70;;;;;;5344521;26;20668;-72
2024/04/08 03:28:35;;;;;;;1999.90;999.90;;;17.70;77.00;;;;;;5358164;26;20243;-72
2024/04/08 03:31:07;;;;;;;1999.90;999.90;;;17.60;77.20;;;;;;5347730;26;20274;-72
2024/04/08 03:33:34;;;;;;;1999.90;999.90;;;17.50;77.30;;;;;;5356256;26;20224;-72
2024/04/08 03:36:08;;;;;;;1999.90;999.90;;;17.40;77.40;;;;;;5373371;26;20229;-72
2024/04/08 03:38:33;;;;;;;1999.90;999.90;;;17.30;77.60;;;;;;5360386;26;20263;-72
2024/04/08 03:41:01;;;;;;;1999.90;999.90;;;17.20;77.80;;;;;;5380670;26;20219;-72
2024/04/08 03:43:27;;;;;;;1999.90;999.90;;;17.10;78.20;;;;;;5378973;26;20261;-72
2024/04/08 03:45:53;;;;;;;1999.90;999.90;;;16.90;78.50;;;;;;5380446;26;20234;-72
2024/04/08 03:48:18;;;;;;;1999.90;999.90;;;16.80;78.40;;;;;;5379622;26;20220;-72
2024/04/08 03:50:44;;;;;;;1999.90;999.90;;;16.80;79.20;;;;;;5380146;26;20277;-72
2024/04/08 03:53:10;;;;;;;1999.90;999.90;;;16.70;78.60;;;;;;5381154;26;20269;-71
2024/04/08 03:55:35;;;;;;;1999.90;999.90;;;16.60;78.80;;;;;;5396904;21;20264;-72
2024/04/08 03:58:01;;;;;;;1999.90;999.90;;;16.60;79.10;;;;;;5310206;27;20828;-72
2024/04/08 04:00:26;;;;;;;1999.90;999.90;;;16.50;79.20;;;;;;5311178;27;20698;-71
2024/04/08 04:02:52;;;;;;;1999.90;999.90;;;16.40;79.40;;;;;;5311402;27;20263;-71
2024/04/08 04:07:56;;;;;;;1999.90;999.90;;;16.40;79.50;;;;;;1306999;24;20254;-71
2024/04/08 04:10:22;;;;;;;1999.90;999.90;;;16.40;79.60;;;;;;5345397;26;20226;-71
2024/04/08 04:12:47;;;;;;;1999.90;999.90;;;16.50;79.80;;;;;;5345297;26;20732;-71
2024/04/08 04:17:48;;;;;;;1999.90;999.90;;;16.50;80.00;;;;;;4578354;24;20252;-72
2024/04/08 04:20:15;;;;;;;1999.90;999.90;;;16.50;80.10;;;;;;5379824;26;20221;-71
2024/04/08 04:22:41;;;;;;;1999.90;999.90;;;16.50;80.20;;;;;;5380278;26;20266;-71
2024/04/08 04:25:08;;;;;;;1999.90;999.90;;;16.60;80.40;;;;;;5379714;26;20736;-72
2024/04/08 04:27:34;;;;;;;1999.90;999.90;;;16.50;80.30;;;;;;5378797;26;20727;-72
2024/04/08 04:29:59;;;;;;;1999.90;999.90;;;16.50;80.30;;;;;;5335111;26;20267;-71
2024/04/08 04:32:25;;;;;;;1999.90;999.90;;;16.50;80.40;;;;;;5379740;26;20232;-71
2024/04/08 04:34:54;;;;;;;1999.90;999.90;;;16.40;80.40;;;;;;5365313;26;20314;-71
2024/04/08 04:37:20;;;;;;;1999.90;999.90;;;16.40;80.60;;;;;;5378846;26;20617;-71
2024/04/08 04:39:46;;;;;;;1999.90;999.90;;;16.40;80.70;;;;;;5365245;26;20235;-71
2024/04/08 04:42:12;;;;;;;1999.90;999.90;;;16.30;81.30;;;;;;5379979;26;20606;-72
2024/04/08 04:44:38;;;;;;;1999.90;999.90;;;16.30;80.50;;;;;;5379954;26;20308;-71
2024/04/08 04:47:19;;;;;;;1999.90;999.90;;;16.20;80.50;;;;;;5465026;21;20666;-71
2024/04/08 04:49:44;;;;;;;1999.90;999.90;;;16.20;80.80;;;;;;5418421;26;20337;-71
2024/04/08 04:52:12;;;;;;;1999.90;999.90;;;16.10;80.60;;;;;;5417966;26;20570;-71
2024/04/08 04:54:38;;;;;;;1999.90;999.90;;;16.10;80.70;;;;;;5403565;26;20228;-71
2024/04/08 04:59:39;;;;;;;1999.90;999.90;;;16.10;80.50;;;;;;1436960;24;21161;-71
2024/04/08 05:02:05;;;;;;;1999.90;999.90;;;16.10;80.40;;;;;;5322867;26;20244;-71
2024/04/08 05:04:30;;;;;;;1999.90;999.90;;;16.00;80.50;;;;;;5312153;27;20223;-71
2024/04/08 05:06:56;;;;;;;1999.90;999.90;;;15.90;80.50;;;;;;5368025;21;20269;-71
2024/04/08 05:09:21;;;;;;;1999.90;999.90;;;15.90;80.50;;;;;;5382713;26;20228;-71
2024/04/08 05:11:47;;;;;;;1999.90;999.90;;;15.80;80.40;;;;;;5382077;26;20285;-71
2024/04/08 05:14:13;;;;;;;1999.90;999.90;;;15.70;80.50;;;;;;5382402;26;20268;-71
2024/04/08 05:16:38;;;;;;;1999.90;999.90;;;15.70;80.60;;;;;;5345925;26;20724;-71
2024/04/08 05:19:04;;;;;;;1999.90;999.90;;;15.60;80.70;;;;;;5328185;26;20348;-71
2024/04/08 05:21:29;;;;;;;1999.90;999.90;;;15.60;81.60;;;;;;5326963;26;20231;-71
2024/04/08 05:23:55;;;;;;;1999.90;999.90;;;15.60;81.00;;;;;;5330568;26;20323;-71
2024/04/08 05:26:21;;;;;;;1999.90;999.90;;;15.60;81.10;;;;;;5328464;26;20302;-71
2024/04/08 05:28:46;;;;;;;1999.90;999.90;;;15.50;81.20;;;;;;5328036;26;20230;-71
2024/04/08 05:31:12;;;;;;;1999.90;999.90;;;15.50;81.50;;;;;;5341105;26;20230;-71
2024/04/08 05:33:38;;;;;;;1999.90;999.90;;;15.40;81.70;;;;;;5337582;26;20303;-71
2024/04/08 05:36:22;;;;;;;1999.90;999.90;;;15.40;81.90;;;;;;5358564;21;20842;-71
2024/04/08 05:38:48;;;;;;;1999.90;999.90;;;15.40;82.30;;;;;;5377245;26;20279;-71
2024/04/08 05:41:13;;;;;;;1999.90;999.90;;;15.40;82.10;;;;;;5381570;26;20241;-71
2024/04/08 05:43:39;;;;;;;1999.90;999.90;;;15.40;82.20;;;;;;5381805;26;20278;-71
2024/04/08 05:46:05;;;;;;;1999.90;999.90;;;15.50;82.30;;;;;;5363518;26;20575;-71
2024/04/08 05:48:30;;;;;;;1999.90;999.90;;;15.50;82.30;;;;;;5347146;26;20233;-71
2024/04/08 05:50:56;;;;;;;1999.90;999.90;;;15.50;82.40;;;;;;5336720;26;20352;-71
2024/04/08 05:53:22;;;;;;;1999.90;999.90;;;15.50;82.60;;;;;;5332051;26;20322;-71
2024/04/08 05:55:48;;;;;;;1999.90;999.90;;;15.50;82.80;;;;;;5346945;26;20625;-71
2024/04/08 05:58:13;;;;;;;1999.90;999.90;;;15.50;82.80;;;;;;5344790;26;20216;-71
2024/04/08 06:00:39;;;;;;;1999.90;999.90;;;15.60;82.80;;;;;;5316311;26;20719;-71
2024/04/08 06:03:06;;;;;;;1999.90;999.90;;;15.70;82.80;;;;;;5346921;26;20222;-71
2024/04/08 06:05:32;;;;;;;1999.90;999.90;;;15.70;82.70;;;;;;5346516;26;20589;-71
2024/04/08 06:07:58;;;;;;;1999.90;999.90;;;15.80;82.70;;;;;;5345412;26;20225;-71
2024/04/08 06:10:30;;;;;;;1999.90;999.90;;;15.90;82.80;;;;;;5346631;26;20813;-71
2024/04/08 06:12:56;;;;;;;1999.90;999.90;;;16.00;82.80;;;;;;5322596;26;20232;-71
2024/04/08 06:15:22;;;;;;;1999.90;999.90;;;16.20;82.70;;;;;;5311644;27;20651;-71
2024/04/08 06:17:48;;;;;;;1999.90;999.90;;;16.40;82.50;;;;;;5310888;27;20303;-71
2024/04/08 06:20:13;;;;;;;1999.90;999.90;;;16.60;82.40;;;;;;5312020;27;20332;-71
2024/04/08 06:22:39;;;;;;;1999.90;999.90;;;16.80;82.20;;;;;;5312240;27;20563;-71
2024/04/08 06:25:06;;;;;;;1999.90;999.90;;;16.90;82.10;;;;;;5311703;27;20553;-71
2024/04/08 06:27:32;;;;;;;1999.90;999.90;;;16.90;82.20;;;;;;5311035;27;20218;-71
2024/04/08 06:29:58;;;;;;;1999.90;999.90;;;17.00;82.30;;;;;;5311994;27;20329;-72
2024/04/08 06:32:24;;;;;;;1999.90;999.90;;;17.20;82.00;;;;;;5281870;27;20235;-71
2024/04/08 06:34:49;;;;;;;1999.90;999.90;;;17.30;81.80;;;;;;5312022;27;20251;-71
2024/04/08 06:42:23;;;;;;;1999.90;999.90;;;17.80;81.60;;;;;;5343660;26;20598;-71
2024/04/08 06:44:52;;;;;;;1999.90;999.90;;;18.10;81.30;;;;;;5346363;26;20329;-71
2024/04/08 06:47:19;;;;;;;1999.90;999.90;;;18.30;80.30;;;;;;5411829;21;20264;-71
2024/04/08 06:49:46;;;;;;;1999.90;999.90;;;18.50;79.70;;;;;;5346289;26;20322;-72
2024/04/08 06:52:12;;;;;;;1999.90;999.90;;;18.80;79.30;;;;;;5346134;26;20217;-72
2024/04/08 06:54:37;;;;;;;1999.90;999.90;;;18.90;78.50;;;;;;5315601;26;20254;-72
2024/04/08 06:57:03;;;;;;;1999.90;999.90;;;19.20;78.40;;;;;;5353205;21;20358;-72
2024/04/08 06:59:29;;;;;;;1999.90;999.90;;;19.50;77.90;;;;;;5346103;26;20220;-72
2024/04/08 07:01:55;;;;;;;1999.90;999.90;;;19.70;77.10;;;;;;5345911;26;20255;-72
2024/04/08 07:04:22;;;;;;;1999.90;999.90;;;19.90;76.50;;;;;;5345998;26;20224;-72
2024/04/08 07:06:48;;;;;;;1999.90;999.90;;;20.10;75.80;;;;;;5394416;21;20297;-72
2024/04/08 07:09:13;;;;;;;1999.90;999.90;;;20.40;75.10;;;;;;5379489;26;20219;-72
2024/04/08 07:11:39;;;;;;;1999.90;999.90;;;20.60;74.10;;;;;;5369971;26;20240;-72
2024/04/08 07:14:06;;;;;;;1999.90;999.90;;;20.80;73.20;;;;;;5347218;26;20279;-72
2024/04/08 07:16:32;;;;;;;1999.90;999.90;;;21.00;72.50;;;;;;5344899;26;20259;-73
2024/04/08 07:18:58;;;;;;;1999.90;999.90;;;21.10;71.70;;;;;;5346120;26;20712;-72
2024/04/08 07:21:24;;;;;;;1999.90;999.90;;;21.20;70.70;;;;;;5379708;26;20711;-72
2024/04/08 07:23:51;;;;;;;1999.90;999.90;;;21.30;69.90;;;;;;5380782;26;20217;-72
2024/04/08 07:26:18;;;;;;;1999.90;999.90;;;21.40;69.40;;;;;;5348316;26;20765;-72
2024/04/08 07:28:44;;;;;;;1999.90;999.90;;;21.60;69.10;;;;;;5363786;26;20752;-72
2024/04/08 07:31:10;;;;;;;1999.90;999.90;;;21.70;69.00;;;;;;5345591;26;20238;-72
2024/04/08 07:33:35;;;;;;;1999.90;999.90;;;21.90;68.20;;;;;;5345985;26;20229;-73
2024/04/08 07:39:04;;;;;;;1999.90;999.90;;;22.30;66.40;;;;;;5191957;24;20811;-73
2024/04/08 07:41:30;;;;;;;1999.90;999.90;;;22.50;65.10;;;;;;5349414;26;20232;-73
2024/04/08 07:43:56;;;;;;;1999.90;999.90;;;22.60;64.50;;;;;;5380558;26;20709;-73
2024/04/08 07:46:21;;;;;;;1999.90;999.90;;;22.70;64.00;;;;;;5354451;26;20239;-73
2024/04/08 07:48:48;;;;;;;1999.90;999.90;;;22.90;63.60;;;;;;5345726;26;20224;-73
2024/04/08 07:51:13;;;;;;;1999.90;999.90;;;23.10;62.90;;;;;;5345340;26;20291;-73
2024/04/08 07:53:39;;;;;;;1999.90;999.90;;;23.20;63.40;;;;;;5345762;26;20217;-73
2024/04/08 08:03:51;;;;;;;1999.90;999.90;;;23.70;59.70;;;;;;1521265;24;20243;-73
2024/04/08 08:06:17;;;;;;;1999.90;999.90;;;23.80;59.50;;;;;;5378971;26;20317;-73
2024/04/08 08:08:42;;;;;;;1999.90;999.90;;;23.70;59.30;;;;;;5380652;26;20215;-73
2024/04/08 08:11:08;;;;;;;1999.90;999.90;;;23.80;59.60;;;;;;5379541;26;20215;-73
2024/04/08 08:13:34;;;;;;;1999.90;999.90;;;23.90;59.40;;;;;;5380618;26;20215;-73
2024/04/08 08:16:18;;;;;;;1999.90;999.90;;;24.20;59.30;;;;;;5643151;21;20630;-74
2024/04/08 08:18:45;;;;;;;1999.90;999.90;;;24.40;58.80;;;;;;5345241;26;20772;-73
2024/04/08 08:21:11;;;;;;;1999.90;999.90;;;24.70;58.00;;;;;;5309825;27;20221;-73
2024/04/08 08:23:37;;;;;;;1999.90;999.90;;;24.70;58.00;;;;;;5310789;27;20268;-73
2024/04/08 08:57:59;;;;;;;1999.90;999.90;;;27.20;53.80;;;;;;5518425;21;20348;-74
2024/04/08 09:18:00;;;;;;;;;;;;;;;;;;;;;
2024/04/08 09:50:32;;;;;;;1999.90;999.90;;;28.50;49.60;;;;;;5278385;27;20257;-73
2024/04/08 09:52:57;;;;;;;1999.90;999.90;;;28.20;50.10;;;;;;5278763;27;20226;-73
2024/04/08 10:11:04;;;;;;;1999.90;999.90;;;27.20;52.50;;;;;;2341985;25;20257;-73
2024/04/08 10:14:11;;;;;;;1999.90;999.90;;;27.00;52.10;;;;;;5241863;27;20324;-73
2024/04/08 10:17:22;;;;;;;;;;;;;;;;;;;;;
2024/04/08 10:34:48;;;;;;;1999.90;999.90;;;27.90;51.60;;;;;;5234479;26;20264;-73
2024/04/08 10:52:20;;;;;;;1999.90;999.90;;;30.10;48.50;;;;;;5055955;28;20240;-73
2024/04/08 10:55:46;;;;;;;;;;;;;;;;;;;;;
2024/04/08 10:58:13;;;;;;;1999.90;999.90;;;29.50;47.70;;;;;;5077915;28;20265;-73
2024/04/08 11:00:39;;;;;;;1999.90;999.90;;;29.00;48.20;;;;;;5079438;28;20306;-73
2024/04/08 11:03:06;;;;;;;1999.90;999.90;;;28.70;48.60;;;;;;5154281;27;20228;-73
2024/04/08 11:08:08;;;;;;;1999.90;999.90;;;28.80;49.30;;;;;;1256653;25;20327;-74
2024/04/08 11:10:35;;;;;;;1999.90;999.90;;;28.90;49.30;;;;;;5312136;27;20221;-74
2024/04/08 11:13:01;;;;;;;1999.90;999.90;;;29.30;48.80;;;;;;5312414;27;20616;-73
2024/04/08 11:15:31;;;;;;;1999.90;999.90;;;29.70;48.60;;;;;;5311607;26;20229;-73
2024/04/08 11:17:57;;;;;;;1999.90;999.90;;;30.00;48.20;;;;;;5311399;27;20218;-73
2024/04/08 11:20:27;;;;;;;1999.90;999.90;;;30.20;47.60;;;;;;5312431;27;20233;-73
2024/04/08 11:22:54;;;;;;;1999.90;999.90;;;30.30;47.20;;;;;;5312281;27;20252;-73
2024/04/08 11:25:20;;;;;;;1999.90;999.90;;;30.50;47.40;;;;;;5311984;26;20341;-74
2024/04/08 11:27:46;;;;;;;1999.90;999.90;;;30.70;47.10;;;;;;5310973;26;20229;-73
2024/04/08 11:30:16;;;;;;;1999.90;999.90;;;31.00;47.30;;;;;;5311719;27;20336;-73
2024/04/08 11:32:42;;;;;;;1999.90;999.90;;;31.20;47.30;;;;;;5312417;27;20664;-73
2024/04/08 12:06:52;;;;;;;1999.90;999.90;;;33.20;43.00;;;;;;4551449;25;20739;-76
2024/04/08 13:05:35;;;;;;;1999.90;999.90;;;30.00;38.70;;;;;;923865;21;20737;-74
2024/04/08 13:08:01;;;;;;;1999.90;999.90;;;29.70;38.40;;;;;;5210726;27;20237;-74
2024/04/08 13:10:27;;;;;;;1999.90;999.90;;;29.50;38.20;;;;;;5211875;27;20220;-74
2024/04/08 13:12:53;;;;;;;1999.90;999.90;;;29.20;38.60;;;;;;5212271;27;20623;-74
2024/04/08 13:54:55;;;;;;;1999.90;999.90;;;31.50;38.20;;;;;;1428032;25;20371;-74
2024/04/08 16:01:57;;;;;;;1999.90;999.90;;;29.30;39.60;;;;;;5047047;21;20292;-75
2024/04/08 16:04:23;;;;;;;1999.90;999.90;;;29.20;39.80;;;;;;5277353;27;20222;-75
2024/04/08 16:12:13;;;;;;;1999.90;999.90;;;29.00;40.90;;;;;;1400432;25;20757;-74
2024/04/08 16:14:38;;;;;;;1999.90;999.90;;;28.90;41.00;;;;;;5247331;27;20238;-75
2024/04/08 17:00:00;;;;;;;1999.90;999.90;;;27.70;40.30;;;;;;5173128;27;20432;-74
2024/04/08 17:22:53;;;;;;;1999.90;999.90;;;27.00;41.80;;;;;;5279121;27;20269;-75
2024/04/08 17:25:19;;;;;;;1999.90;999.90;;;26.80;41.70;;;;;;5278943;27;20231;-74
2024/04/08 17:27:44;;;;;;;1999.90;999.90;;;26.70;41.90;;;;;;5278806;27;20286;-74
2024/04/08 17:30:11;;;;;;;1999.90;999.90;;;26.70;42.20;;;;;;5279180;27;20705;-74
2024/04/08 17:32:36;;;;;;;1999.90;999.90;;;26.60;42.80;;;;;;5279417;27;20227;-74
2024/04/08 18:27:11;;;;;;;1999.90;999.90;;;24.20;45.10;;;;;;1006982;25;20611;-74
2024/04/08 18:29:36;;;;;;;1999.90;999.90;;;24.10;45.40;;;;;;5313316;27;20868;-73
2024/04/08 18:32:02;;;;;;;1999.90;999.90;;;24.00;45.50;;;;;;5312443;27;20229;-73
2024/04/08 18:34:28;;;;;;;1999.90;999.90;;;23.90;45.30;;;;;;5312928;27;20217;-74
2024/04/08 18:36:53;;;;;;;1999.90;999.90;;;23.80;45.30;;;;;;5311600;26;20238;-73
2024/04/08 18:39:19;;;;;;;1999.90;999.90;;;23.70;45.30;;;;;;5312453;27;20751;-73
2024/04/08 18:41:45;;;;;;;1999.90;999.90;;;23.60;45.10;;;;;;5312465;27;20281;-73
2024/04/08 18:44:12;;;;;;;1999.90;999.90;;;23.50;45.70;;;;;;5312739;27;20566;-73
2024/04/08 18:46:37;;;;;;;1999.90;999.90;;;23.50;45.60;;;;;;5311498;26;20256;-73
2024/04/08 18:49:03;;;;;;;1999.90;999.90;;;23.50;46.20;;;;;;5311954;27;20217;-73
2024/04/08 18:51:28;;;;;;;1999.90;999.90;;;23.40;46.20;;;;;;5281971;27;20567;-73
2024/04/08 18:53:54;;;;;;;1999.90;999.90;;;23.40;46.20;;;;;;5312304;27;20292;-73
2024/04/08 19:01:47;;;;;;;1999.90;999.90;;;23.30;45.50;;;;;;2421145;25;20279;-74
2024/04/08 19:04:13;;;;;;;1999.90;999.90;;;23.40;45.40;;;;;;5312892;27;20693;-73
2024/04/08 19:06:38;;;;;;;1999.90;999.90;;;23.40;45.20;;;;;;5334507;26;20294;-73
2024/04/08 19:09:04;;;;;;;1999.90;999.90;;;23.40;45.10;;;;;;5346537;26;20325;-73
2024/04/08 19:11:30;;;;;;;1999.90;999.90;;;23.40;45.10;;;;;;5346557;26;20224;-73
2024/04/08 19:13:56;;;;;;;1999.90;999.90;;;23.40;45.10;;;;;;5316244;26;20255;-73
2024/04/08 19:16:24;;;;;;;1999.90;999.90;;;23.40;45.20;;;;;;5315102;26;20274;-74
2024/04/08 19:18:49;;;;;;;1999.90;999.90;;;23.40;45.10;;;;;;5346418;26;20221;-73
2024/04/08 19:21:15;;;;;;;1999.90;999.90;;;23.40;45.10;;;;;;5346132;26;20266;-73
2024/04/08 19:23:40;;;;;;;1999.90;999.90;;;23.40;44.80;;;;;;5346471;26;20267;-73
2024/04/08 19:26:06;;;;;;;1999.90;999.90;;;23.40;44.60;;;;;;5345360;26;20236;-73
2024/04/08 19:28:33;;;;;;;1999.90;999.90;;;23.40;44.60;;;;;;5315821;26;20251;-73
2024/04/08 19:30:59;;;;;;;1999.90;999.90;;;23.40;44.60;;;;;;5320945;26;20283;-73
2024/04/08 19:33:25;;;;;;;1999.90;999.90;;;23.40;44.60;;;;;;5319899;26;20362;-73
2024/04/08 19:35:55;;;;;;;1999.90;999.90;;;23.40;44.70;;;;;;5298386;26;20233;-73
2024/04/08 19:38:21;;;;;;;1999.90;999.90;;;23.30;45.20;;;;;;5343086;26;20236;-73
2024/04/08 19:41:00;;;;;;;1999.90;999.90;;;23.30;46.00;;;;;;5344669;26;20357;-73
2024/04/08 19:43:26;;;;;;;1999.90;999.90;;;23.30;46.70;;;;;;5341098;26;21015;-73
2024/04/08 19:45:51;;;;;;;1999.90;999.90;;;23.20;46.40;;;;;;5314622;26;20244;-73
2024/04/08 19:48:17;;;;;;;1999.90;999.90;;;23.10;46.50;;;;;;5345016;26;20232;-73
2024/04/08 19:50:43;;;;;;;1999.90;999.90;;;22.90;46.90;;;;;;5315001;26;20240;-73
2024/04/08 19:53:08;;;;;;;1999.90;999.90;;;22.80;47.10;;;;;;5345519;26;20244;-73
2024/04/08 19:55:35;;;;;;;1999.90;999.90;;;22.70;47.00;;;;;;5345268;26;20236;-73
2024/04/08 19:58:01;;;;;;;1999.90;999.90;;;22.60;46.70;;;;;;5311302;26;20570;-73
2024/04/08 20:00:27;;;;;;;1999.90;999.90;;;22.50;46.30;;;;;;5342034;26;20310;-73
2024/04/08 20:02:52;;;;;;;1999.90;999.90;;;22.50;46.00;;;;;;5313850;26;20249;-72
2024/04/08 20:05:18;;;;;;;1999.90;999.90;;;22.50;46.00;;;;;;5339884;26;20945;-73
2024/04/08 20:07:46;;;;;;;1999.90;999.90;;;22.40;45.90;;;;;;5339391;26;20279;-74
2024/04/08 20:10:12;;;;;;;1999.90;999.90;;;22.40;45.80;;;;;;5312538;26;20236;-73
2024/04/08 20:12:38;;;;;;;1999.90;999.90;;;22.40;45.90;;;;;;5344247;26;20236;-73
2024/04/08 20:15:06;;;;;;;1999.90;999.90;;;22.30;45.90;;;;;;5321307;26;20284;-73
2024/04/08 20:17:32;;;;;;;1999.90;999.90;;;22.30;46.10;;;;;;5341578;26;20304;-73
2024/04/08 20:19:59;;;;;;;1999.90;999.90;;;22.30;46.40;;;;;;5341093;26;20240;-73
2024/04/08 20:22:25;;;;;;;1999.90;999.90;;;22.30;47.00;;;;;;5339632;26;20342;-73
2024/04/08 20:24:51;;;;;;;1999.90;999.90;;;22.30;47.70;;;;;;5344517;26;20243;-73
2024/04/08 20:27:19;;;;;;;1999.90;999.90;;;22.20;48.00;;;;;;5340961;26;20718;-73
2024/04/08 20:29:49;;;;;;;1999.90;999.90;;;22.20;47.90;;;;;;5309584;26;20236;-73
2024/04/08 20:32:15;;;;;;;1999.90;999.90;;;22.10;47.70;;;;;;5312708;26;20337;-73
2024/04/08 20:34:40;;;;;;;1999.90;999.90;;;22.10;47.40;;;;;;5340850;26;20243;-73
2024/04/08 20:37:06;;;;;;;1999.90;999.90;;;22.10;47.30;;;;;;5338983;26;20283;-73
2024/04/08 20:39:35;;;;;;;1999.90;999.90;;;22.10;47.30;;;;;;5330760;26;20305;-73
2024/04/08 20:42:00;;;;;;;1999.90;999.90;;;22.10;47.00;;;;;;5316088;26;20237;-73
2024/04/08 20:44:26;;;;;;;1999.90;999.90;;;22.20;46.90;;;;;;5344926;26;20745;-73
2024/04/08 20:46:53;;;;;;;1999.90;999.90;;;22.20;46.70;;;;;;5339078;26;20267;-73
2024/04/08 20:49:19;;;;;;;1999.90;999.90;;;22.20;46.50;;;;;;5335916;26;20561;-74
2024/04/08 20:51:45;;;;;;;1999.90;999.90;;;22.20;46.30;;;;;;5342167;26;20345;-74
2024/04/08 20:54:10;;;;;;;1999.90;999.90;;;22.20;46.20;;;;;;5332565;26;20240;-74
2024/04/08 20:56:36;;;;;;;1999.90;999.90;;;22.10;46.10;;;;;;5343080;26;20229;-74
2024/04/08 20:59:04;;;;;;;1999.90;999.90;;;22.20;46.20;;;;;;5343881;26;20567;-74
2024/04/08 21:01:31;;;;;;;1999.90;999.90;;;22.20;46.30;;;;;;5344232;26;20228;-73
2024/04/08 21:03:56;;;;;;;1999.90;999.90;;;22.20;46.20;;;;;;5344417;26;20216;-73
2024/04/08 21:06:26;;;;;;;1999.90;999.90;;;22.20;46.10;;;;;;5343106;26;20274;-72
2024/04/08 21:08:51;;;;;;;1999.90;999.90;;;22.20;46.20;;;;;;5344090;26;20283;-72
2024/04/08 21:11:17;;;;;;;1999.90;999.90;;;22.20;46.60;;;;;;5344200;26;20287;-71
2024/04/08 21:13:43;;;;;;;1999.90;999.90;;;22.20;47.90;;;;;;5312857;26;20263;-71
2024/04/08 21:16:09;;;;;;;1999.90;999.90;;;22.20;47.80;;;;;;5343006;26;20675;-71
2024/04/08 21:18:35;;;;;;;1999.90;999.90;;;22.10;48.50;;;;;;5345185;26;20703;-71
2024/04/08 21:21:05;;;;;;;1999.90;999.90;;;22.10;48.70;;;;;;5344643;26;20232;-71
2024/04/08 21:23:33;;;;;;;1999.90;999.90;;;22.10;49.00;;;;;;5344374;26;20255;-72